sensor_id;sensor_type;location;lat;lon;timestamp;temperature;humidity
4922;DHT22;16625;53.624;10.106;2022-07-15T00:02:08;12.60;99.90
4922;DHT22;16625;53.624;10.106;2022-07-15T00:04:36;13.30;99.90
4922;DHT22;16625;53.624;10.106;2022-07-15T00:07:04;12.70;99.90
4922;DHT22;16625;53.624;10.106;2022-07-15T00:09:33;12.90;99.90
4922;DHT22;16625;53.624;10.106;2022-07-15T00:12:17;12.90;99.90
4922;DHT22;16625;53.624;10.106;2022-07-15T00:14:44;13.10;99.90
4922;DHT22;16625;53.624;10.106;2022-07-15T00:17:11;13.40;99.90
4922;DHT22;16625;53.624;10.106;2022-07-15T00:19:38;13.30;99.90
4922;DHT22;16625;53.624;10.106;2022-07-15T00:22:05;13.20;99.90
4922;DHT22;16625;53.624;10.106;2022-07-15T00:24:33;13.20;99.90
4922;DHT22;16625;53.624;10.106;2022-07-15T00:27:00;13.90;99.90
4922;DHT22;16625;53.624;10.106;2022-07-15T00:29:29;13.30;99.90
4922;DHT22;16625;53.624;10.106;2022-07-15T00:31:56;13.50;99.90
4922;DHT22;16625;53.624;10.106;2022-07-15T00:34:23;13.30;99.90
4922;DHT22;16625;53.624;10.106;2022-07-15T00:36:50;13.60;99.90
4922;DHT22;16625;53.624;10.106;2022-07-15T00:39:17;13.80;99.90
4922;DHT22;16625;53.624;10.106;2022-07-15T00:41:45;14.10;99.90
4922;DHT22;16625;53.624;10.106;2022-07-15T00:44:12;13.20;99.90
4922;DHT22;16625;53.624;10.106;2022-07-15T00:46:39;14.00;99.90
4922;DHT22;16625;53.624;10.106;2022-07-15T00:49:08;13.10;99.90
4922;DHT22;16625;53.624;10.106;2022-07-15T00:51:36;13.00;99.90
4922;DHT22;16625;53.624;10.106;2022-07-15T00:54:04;13.70;99.90
4922;DHT22;16625;53.624;10.106;2022-07-15T00:56:36;14.10;99.90
4922;DHT22;16625;53.624;10.106;2022-07-15T00:59:06;13.80;99.90
4922;DHT22;16625;53.624;10.106;2022-07-15T01:01:33;13.10;99.90
4922;DHT22;16625;53.624;10.106;2022-07-15T01:04:02;12.80;99.90
4922;DHT22;16625;53.624;10.106;2022-07-15T01:06:29;12.80;99.90
4922;DHT22;16625;53.624;10.106;2022-07-15T01:08:57;13.80;99.90
4922;DHT22;16625;53.624;10.106;2022-07-15T01:11:24;13.30;99.90
4922;DHT22;16625;53.624;10.106;2022-07-15T01:13:51;13.50;99.90
4922;DHT22;16625;53.624;10.106;2022-07-15T01:16:19;12.90;99.90
4922;DHT22;16625;53.624;10.106;2022-07-15T01:18:46;12.90;99.90
4922;DHT22;16625;53.624;10.106;2022-07-15T01:21:15;13.10;99.90
4922;DHT22;16625;53.624;10.106;2022-07-15T01:23:42;14.00;99.90
4922;DHT22;16625;53.624;10.106;2022-07-15T01:26:09;13.70;99.90
4922;DHT22;16625;53.624;10.106;2022-07-15T01:28:37;14.10;99.90
4922;DHT22;16625;53.624;10.106;2022-07-15T01:31:04;13.40;99.90
4922;DHT22;16625;53.624;10.106;2022-07-15T01:33:31;13.30;99.90
4922;DHT22;16625;53.624;10.106;2022-07-15T01:35:58;13.30;99.90
4922;DHT22;16625;53.624;10.106;2022-07-15T01:38:28;14.20;99.90
4922;DHT22;16625;53.624;10.106;2022-07-15T01:40:56;13.80;99.90
4922;DHT22;16625;53.624;10.106;2022-07-15T01:43:23;13.30;99.90
4922;DHT22;16625;53.624;10.106;2022-07-15T01:45:50;14.20;99.90
4922;DHT22;16625;53.624;10.106;2022-07-15T01:48:17;13.90;99.90
4922;DHT22;16625;53.624;10.106;2022-07-15T01:51:01;12.80;99.90
4922;DHT22;16625;53.624;10.106;2022-07-15T01:53:30;13.00;99.90
4922;DHT22;16625;53.624;10.106;2022-07-15T01:55:57;13.50;99.90
4922;DHT22;16625;53.624;10.106;2022-07-15T01:58:24;13.20;99.90
4922;DHT22;16625;53.624;10.106;2022-07-15T02:00:51;12.70;99.90
4922;DHT22;16625;53.624;10.106;2022-07-15T02:03:18;12.80;99.90
4922;DHT22;16625;53.624;10.106;2022-07-15T02:05:45;14.00;99.90
4922;DHT22;16625;53.624;10.106;2022-07-15T02:08:12;12.80;99.90
4922;DHT22;16625;53.624;10.106;2022-07-15T02:10:40;13.70;99.90
4922;DHT22;16625;53.624;10.106;2022-07-15T02:13:07;13.80;99.90
4922;DHT22;16625;53.624;10.106;2022-07-15T02:15:35;13.00;99.90
4922;DHT22;16625;53.624;10.106;2022-07-15T02:18:02;13.40;99.90
4922;DHT22;16625;53.624;10.106;2022-07-15T02:20:30;13.20;99.90
4922;DHT22;16625;53.624;10.106;2022-07-15T02:22:57;14.20;99.90
4922;DHT22;16625;53.624;10.106;2022-07-15T02:25:24;13.80;99.90
4922;DHT22;16625;53.624;10.106;2022-07-15T02:27:55;13.20;99.90
4922;DHT22;16625;53.624;10.106;2022-07-15T02:30:24;13.20;99.90
4922;DHT22;16625;53.624;10.106;2022-07-15T02:32:51;13.50;99.90
4922;DHT22;16625;53.624;10.106;2022-07-15T02:35:18;13.60;99.90
4922;DHT22;16625;53.624;10.106;2022-07-15T02:37:46;13.10;99.90
4922;DHT22;16625;53.624;10.106;2022-07-15T02:40:13;13.10;99.90
4922;DHT22;16625;53.624;10.106;2022-07-15T02:42:47;14.40;99.90
4922;DHT22;16625;53.624;10.106;2022-07-15T02:45:16;13.00;99.90
4922;DHT22;16625;53.624;10.106;2022-07-15T02:47:43;14.00;99.90
4922;DHT22;16625;53.624;10.106;2022-07-15T02:50:10;13.50;99.90
4922;DHT22;16625;53.624;10.106;2022-07-15T02:52:37;13.00;99.90
4922;DHT22;16625;53.624;10.106;2022-07-15T02:55:05;13.60;99.90
4922;DHT22;16625;53.624;10.106;2022-07-15T02:57:32;12.90;99.90
4922;DHT22;16625;53.624;10.106;2022-07-15T02:59:59;12.90;99.90
4922;DHT22;16625;53.624;10.106;2022-07-15T03:02:28;12.90;99.90
4922;DHT22;16625;53.624;10.106;2022-07-15T03:04:55;13.90;99.90
4922;DHT22;16625;53.624;10.106;2022-07-15T03:07:22;13.90;99.90
4922;DHT22;16625;53.624;10.106;2022-07-15T03:09:49;13.20;99.90
4922;DHT22;16625;53.624;10.106;2022-07-15T03:12:16;13.90;99.90
4922;DHT22;16625;53.624;10.106;2022-07-15T03:14:43;13.80;99.90
4922;DHT22;16625;53.624;10.106;2022-07-15T03:17:10;12.90;99.90
4922;DHT22;16625;53.624;10.106;2022-07-15T03:19:38;13.50;99.90
4922;DHT22;16625;53.624;10.106;2022-07-15T03:22:05;14.20;99.90
4922;DHT22;16625;53.624;10.106;2022-07-15T03:24:32;13.70;99.90
4922;DHT22;16625;53.624;10.106;2022-07-15T03:26:59;13.00;99.90
4922;DHT22;16625;53.624;10.106;2022-07-15T03:29:26;13.20;99.90
4922;DHT22;16625;53.624;10.106;2022-07-15T03:31:55;14.20;99.90
4922;DHT22;16625;53.624;10.106;2022-07-15T03:34:22;13.00;99.90
4922;DHT22;16625;53.624;10.106;2022-07-15T03:36:52;13.00;99.90
4922;DHT22;16625;53.624;10.106;2022-07-15T03:39:20;13.70;99.90
4922;DHT22;16625;53.624;10.106;2022-07-15T03:41:47;13.60;99.90
4922;DHT22;16625;53.624;10.106;2022-07-15T03:44:14;13.40;99.90
4922;DHT22;16625;53.624;10.106;2022-07-15T03:46:42;13.70;99.90
4922;DHT22;16625;53.624;10.106;2022-07-15T03:49:11;13.80;99.90
4922;DHT22;16625;53.624;10.106;2022-07-15T03:51:38;13.00;99.90
4922;DHT22;16625;53.624;10.106;2022-07-15T03:54:07;13.40;99.90
4922;DHT22;16625;53.624;10.106;2022-07-15T03:56:35;13.10;99.90
4922;DHT22;16625;53.624;10.106;2022-07-15T03:59:02;13.10;99.90
4922;DHT22;16625;53.624;10.106;2022-07-15T04:01:32;14.30;99.90
4922;DHT22;16625;53.624;10.106;2022-07-15T04:03:59;13.20;99.90
4922;DHT22;16625;53.624;10.106;2022-07-15T04:06:27;13.20;99.90
4922;DHT22;16625;53.624;10.106;2022-07-15T04:08:53;13.30;99.90
4922;DHT22;16625;53.624;10.106;2022-07-15T04:11:23;13.30;99.90
4922;DHT22;16625;53.624;10.106;2022-07-15T04:13:50;13.30;99.90
4922;DHT22;16625;53.624;10.106;2022-07-15T04:16:17;13.40;99.90
4922;DHT22;16625;53.624;10.106;2022-07-15T04:18:44;13.40;99.90
4922;DHT22;16625;53.624;10.106;2022-07-15T04:21:12;14.50;99.90
4922;DHT22;16625;53.624;10.106;2022-07-15T04:23:39;13.50;99.90
4922;DHT22;16625;53.624;10.106;2022-07-15T04:26:06;13.60;99.90
4922;DHT22;16625;53.624;10.106;2022-07-15T04:28:35;14.30;99.90
4922;DHT22;16625;53.624;10.106;2022-07-15T04:31:02;13.60;99.90
4922;DHT22;16625;53.624;10.106;2022-07-15T04:33:29;13.70;99.90
4922;DHT22;16625;53.624;10.106;2022-07-15T04:35:56;14.70;99.90
4922;DHT22;16625;53.624;10.106;2022-07-15T04:38:25;14.60;99.90
4922;DHT22;16625;53.624;10.106;2022-07-15T04:40:53;14.30;99.90
4922;DHT22;16625;53.624;10.106;2022-07-15T04:43:20;14.00;99.90
4922;DHT22;16625;53.624;10.106;2022-07-15T04:45:50;14.50;99.90
4922;DHT22;16625;53.624;10.106;2022-07-15T04:48:17;14.80;1.50
4922;DHT22;16625;53.624;10.106;2022-07-15T04:51:02;15.20;1.00
4922;DHT22;16625;53.624;10.106;2022-07-15T04:53:30;14.30;1.00
4922;DHT22;16625;53.624;10.106;2022-07-15T04:55:57;15.30;1.00
4922;DHT22;16625;53.624;10.106;2022-07-15T04:58:24;15.20;1.00
4922;DHT22;16625;53.624;10.106;2022-07-15T05:00:53;15.00;1.00
4922;DHT22;16625;53.624;10.106;2022-07-15T05:03:20;14.40;1.00
4922;DHT22;16625;53.624;10.106;2022-07-15T05:05:47;14.40;1.00
4922;DHT22;16625;53.624;10.106;2022-07-15T05:08:14;14.40;1.00
4922;DHT22;16625;53.624;10.106;2022-07-15T05:10:41;14.70;1.00
4922;DHT22;16625;53.624;10.106;2022-07-15T05:13:08;15.50;1.00
4922;DHT22;16625;53.624;10.106;2022-07-15T05:15:35;15.50;1.00
4922;DHT22;16625;53.624;10.106;2022-07-15T05:18:03;14.50;1.00
4922;DHT22;16625;53.624;10.106;2022-07-15T05:20:31;14.40;1.00
4922;DHT22;16625;53.624;10.106;2022-07-15T05:22:58;14.40;8.20
4922;DHT22;16625;53.624;10.106;2022-07-15T05:25:25;14.70;19.30
4922;DHT22;16625;53.624;10.106;2022-07-15T05:27:52;14.50;60.00
4922;DHT22;16625;53.624;10.106;2022-07-15T05:30:19;14.70;21.70
4922;DHT22;16625;53.624;10.106;2022-07-15T05:32:46;14.60;64.20
4922;DHT22;16625;53.624;10.106;2022-07-15T05:35:16;15.10;28.70
4922;DHT22;16625;53.624;10.106;2022-07-15T05:37:43;15.60;99.80
4922;DHT22;16625;53.624;10.106;2022-07-15T05:40:11;15.10;99.90
4922;DHT22;16625;53.624;10.106;2022-07-15T05:42:40;14.50;99.90
4922;DHT22;16625;53.624;10.106;2022-07-15T05:45:08;14.50;99.90
4922;DHT22;16625;53.624;10.106;2022-07-15T05:47:36;14.50;99.90
4922;DHT22;16625;53.624;10.106;2022-07-15T05:50:03;14.50;99.90
4922;DHT22;16625;53.624;10.106;2022-07-15T05:52:32;14.20;99.90
4922;DHT22;16625;53.624;10.106;2022-07-15T05:55:00;14.00;99.90
4922;DHT22;16625;53.624;10.106;2022-07-15T05:57:27;14.60;99.90
4922;DHT22;16625;53.624;10.106;2022-07-15T05:59:54;14.10;99.90
4922;DHT22;16625;53.624;10.106;2022-07-15T06:02:21;14.50;99.90
4922;DHT22;16625;53.624;10.106;2022-07-15T06:04:48;14.50;99.90
4922;DHT22;16625;53.624;10.106;2022-07-15T06:07:16;14.50;99.90
4922;DHT22;16625;53.624;10.106;2022-07-15T06:09:46;15.10;99.90
4922;DHT22;16625;53.624;10.106;2022-07-15T06:12:16;15.00;31.60
4922;DHT22;16625;53.624;10.106;2022-07-15T06:14:43;14.90;23.60
4922;DHT22;16625;53.624;10.106;2022-07-15T06:17:10;15.70;22.10
4922;DHT22;16625;53.624;10.106;2022-07-15T06:19:37;15.50;1.00
4922;DHT22;16625;53.624;10.106;2022-07-15T06:22:04;16.30;1.00
4922;DHT22;16625;53.624;10.106;2022-07-15T06:24:31;16.40;99.90
4922;DHT22;16625;53.624;10.106;2022-07-15T06:27:00;15.90;1.00
4922;DHT22;16625;53.624;10.106;2022-07-15T06:29:27;15.60;96.90
4922;DHT22;16625;53.624;10.106;2022-07-15T06:31:54;15.60;99.90
4922;DHT22;16625;53.624;10.106;2022-07-15T06:34:21;15.70;77.20
4922;DHT22;16625;53.624;10.106;2022-07-15T06:36:48;15.60;1.00
4922;DHT22;16625;53.624;10.106;2022-07-15T06:39:15;15.70;10.10
4922;DHT22;16625;53.624;10.106;2022-07-15T06:41:43;15.90;1.00
4922;DHT22;16625;53.624;10.106;2022-07-15T06:44:12;16.00;1.00
4922;DHT22;16625;53.624;10.106;2022-07-15T06:46:39;16.20;99.90
4922;DHT22;16625;53.624;10.106;2022-07-15T06:49:06;16.10;99.90
4922;DHT22;16625;53.624;10.106;2022-07-15T06:51:34;16.60;99.90
4922;DHT22;16625;53.624;10.106;2022-07-15T06:54:01;17.00;99.90
4922;DHT22;16625;53.624;10.106;2022-07-15T06:56:28;16.50;99.90
4922;DHT22;16625;53.624;10.106;2022-07-15T06:59:19;16.10;1.00
4922;DHT22;16625;53.624;10.106;2022-07-15T07:01:46;16.30;1.00
4922;DHT22;16625;53.624;10.106;2022-07-15T07:04:13;16.20;99.90
4922;DHT22;16625;53.624;10.106;2022-07-15T07:06:40;16.20;99.90
4922;DHT22;16625;53.624;10.106;2022-07-15T07:09:07;16.10;99.90
4922;DHT22;16625;53.624;10.106;2022-07-15T07:11:34;17.00;99.90
4922;DHT22;16625;53.624;10.106;2022-07-15T07:17:49;15.50;99.90
4922;DHT22;16625;53.624;10.106;2022-07-15T07:20:31;15.70;99.90
4922;DHT22;16625;53.624;10.106;2022-07-15T07:22:58;16.60;97.00
4922;DHT22;16625;53.624;10.106;2022-07-15T07:25:25;16.30;99.90
4922;DHT22;16625;53.624;10.106;2022-07-15T07:27:52;16.70;1.00
4922;DHT22;16625;53.624;10.106;2022-07-15T07:30:19;16.50;83.20
4922;DHT22;16625;53.624;10.106;2022-07-15T07:32:49;16.60;99.90
4922;DHT22;16625;53.624;10.106;2022-07-15T07:35:18;17.10;99.90
4922;DHT22;16625;53.624;10.106;2022-07-15T07:37:45;16.90;99.90
4922;DHT22;16625;53.624;10.106;2022-07-15T07:40:12;16.90;51.50
4922;DHT22;16625;53.624;10.106;2022-07-15T07:42:42;17.00;1.00
4922;DHT22;16625;53.624;10.106;2022-07-15T07:45:09;17.00;1.00
4922;DHT22;16625;53.624;10.106;2022-07-15T07:47:37;17.20;1.00
4922;DHT22;16625;53.624;10.106;2022-07-15T07:50:08;17.30;99.90
4922;DHT22;16625;53.624;10.106;2022-07-15T07:52:36;17.40;99.90
4922;DHT22;16625;53.624;10.106;2022-07-15T07:55:04;18.50;89.60
4922;DHT22;16625;53.624;10.106;2022-07-15T07:57:31;17.80;99.90
4922;DHT22;16625;53.624;10.106;2022-07-15T07:59:59;18.40;99.90
4922;DHT22;16625;53.624;10.106;2022-07-15T08:02:26;18.10;99.90
4922;DHT22;16625;53.624;10.106;2022-07-15T08:04:53;17.90;99.90
4922;DHT22;16625;53.624;10.106;2022-07-15T08:07:23;17.60;99.90
4922;DHT22;16625;53.624;10.106;2022-07-15T08:09:50;16.70;1.00
4922;DHT22;16625;53.624;10.106;2022-07-15T08:12:17;16.50;1.00
4922;DHT22;16625;53.624;10.106;2022-07-15T08:14:44;17.20;1.00
4922;DHT22;16625;53.624;10.106;2022-07-15T08:17:12;16.70;1.00
4922;DHT22;16625;53.624;10.106;2022-07-15T08:19:41;15.70;34.70
4922;DHT22;16625;53.624;10.106;2022-07-15T08:22:08;16.40;85.80
4922;DHT22;16625;53.624;10.106;2022-07-15T08:24:37;15.80;1.00
4922;DHT22;16625;53.624;10.106;2022-07-15T08:30:34;16.00;1.00
4922;DHT22;16625;53.624;10.106;2022-07-15T08:33:01;15.90;1.00
4922;DHT22;16625;53.624;10.106;2022-07-15T08:35:29;16.10;61.20
4922;DHT22;16625;53.624;10.106;2022-07-15T08:37:56;16.70;1.00
4922;DHT22;16625;53.624;10.106;2022-07-15T08:40:26;16.90;99.90
4922;DHT22;16625;53.624;10.106;2022-07-15T08:42:53;16.40;1.00
4922;DHT22;16625;53.624;10.106;2022-07-15T08:45:20;16.50;1.00
4922;DHT22;16625;53.624;10.106;2022-07-15T08:47:48;17.90;1.00
4922;DHT22;16625;53.624;10.106;2022-07-15T08:50:19;17.00;39.50
4922;DHT22;16625;53.624;10.106;2022-07-15T10:15:08;19.70;1.00
4922;DHT22;16625;53.624;10.106;2022-07-15T10:17:59;19.20;1.00
4922;DHT22;16625;53.624;10.106;2022-07-15T10:21:10;18.90;1.00
4922;DHT22;16625;53.624;10.106;2022-07-15T10:27:33;18.60;1.00
4922;DHT22;16625;53.624;10.106;2022-07-15T10:33:19;19.00;1.00
4922;DHT22;16625;53.624;10.106;2022-07-15T10:36:06;19.20;1.00
4922;DHT22;16625;53.624;10.106;2022-07-15T10:39:08;19.50;99.90
4922;DHT22;16625;53.624;10.106;2022-07-15T10:41:53;19.40;1.00
4922;DHT22;16625;53.624;10.106;2022-07-15T10:55:25;18.80;1.00
4922;DHT22;16625;53.624;10.106;2022-07-15T10:57:54;19.40;1.00
4922;DHT22;16625;53.624;10.106;2022-07-15T11:00:27;19.40;1.00
4922;DHT22;16625;53.624;10.106;2022-07-15T11:03:13;20.80;99.90
4922;DHT22;16625;53.624;10.106;2022-07-15T12:35:42;18.60;1.00
4922;DHT22;16625;53.624;10.106;2022-07-15T12:45:30;18.90;1.00
4922;DHT22;16625;53.624;10.106;2022-07-15T12:48:18;18.60;1.00
4922;DHT22;16625;53.624;10.106;2022-07-15T12:54:15;18.30;1.00
4922;DHT22;16625;53.624;10.106;2022-07-15T14:12:13;21.10;99.90
4922;DHT22;16625;53.624;10.106;2022-07-15T14:14:40;20.90;99.90
4922;DHT22;16625;53.624;10.106;2022-07-15T14:17:07;21.70;99.90
4922;DHT22;16625;53.624;10.106;2022-07-15T14:19:34;20.90;99.90
4922;DHT22;16625;53.624;10.106;2022-07-15T14:22:01;19.90;99.90
4922;DHT22;16625;53.624;10.106;2022-07-15T14:24:28;20.90;99.90
4922;DHT22;16625;53.624;10.106;2022-07-15T14:26:55;20.50;99.90
4922;DHT22;16625;53.624;10.106;2022-07-15T14:29:24;20.00;99.90
4922;DHT22;16625;53.624;10.106;2022-07-15T14:31:51;20.20;99.90
4922;DHT22;16625;53.624;10.106;2022-07-15T14:34:18;20.00;99.90
4922;DHT22;16625;53.624;10.106;2022-07-15T14:36:45;18.60;99.90
4922;DHT22;16625;53.624;10.106;2022-07-15T14:39:13;19.70;99.90
4922;DHT22;16625;53.624;10.106;2022-07-15T14:41:40;19.40;99.90
4922;DHT22;16625;53.624;10.106;2022-07-15T14:44:07;19.50;99.90
4922;DHT22;16625;53.624;10.106;2022-07-15T14:46:44;19.50;99.90
4922;DHT22;16625;53.624;10.106;2022-07-15T14:49:11;20.30;99.90
4922;DHT22;16625;53.624;10.106;2022-07-15T14:51:43;19.80;99.90
4922;DHT22;16625;53.624;10.106;2022-07-15T14:54:13;19.50;99.90
4922;DHT22;16625;53.624;10.106;2022-07-15T14:56:41;20.00;99.90
4922;DHT22;16625;53.624;10.106;2022-07-15T14:59:12;19.20;99.90
4922;DHT22;16625;53.624;10.106;2022-07-15T15:01:52;19.50;99.90
4922;DHT22;16625;53.624;10.106;2022-07-15T15:04:26;19.70;99.90
4922;DHT22;16625;53.624;10.106;2022-07-15T16:08:14;21.00;99.90
4922;DHT22;16625;53.624;10.106;2022-07-15T16:10:43;22.00;99.90
4922;DHT22;16625;53.624;10.106;2022-07-15T16:13:10;21.40;99.90
4922;DHT22;16625;53.624;10.106;2022-07-15T16:15:38;21.10;99.90
4922;DHT22;16625;53.624;10.106;2022-07-15T16:18:05;21.10;99.90
4922;DHT22;16625;53.624;10.106;2022-07-15T16:20:32;21.40;99.90
4922;DHT22;16625;53.624;10.106;2022-07-15T16:22:59;22.60;99.90
4922;DHT22;16625;53.624;10.106;2022-07-15T16:25:32;21.60;99.90
4922;DHT22;16625;53.624;10.106;2022-07-15T16:28:04;21.80;99.90
4922;DHT22;16625;53.624;10.106;2022-07-15T16:30:31;22.00;99.90
4922;DHT22;16625;53.624;10.106;2022-07-15T16:32:59;23.00;99.90
4922;DHT22;16625;53.624;10.106;2022-07-15T16:35:27;22.90;99.90
4922;DHT22;16625;53.624;10.106;2022-07-15T16:37:54;22.10;99.90
4922;DHT22;16625;53.624;10.106;2022-07-15T16:40:22;22.10;99.90
4922;DHT22;16625;53.624;10.106;2022-07-15T16:42:51;23.40;99.90
4922;DHT22;16625;53.624;10.106;2022-07-15T16:52:03;20.90;99.90
4922;DHT22;16625;53.624;10.106;2022-07-15T16:57:06;20.70;99.90
4922;DHT22;16625;53.624;10.106;2022-07-15T16:59:34;20.30;99.90
4922;DHT22;16625;53.624;10.106;2022-07-15T17:02:02;20.20;99.90
4922;DHT22;16625;53.624;10.106;2022-07-15T17:04:29;20.60;99.90
4922;DHT22;16625;53.624;10.106;2022-07-15T17:06:56;19.90;99.90
4922;DHT22;16625;53.624;10.106;2022-07-15T17:09:24;19.60;94.90
4922;DHT22;16625;53.624;10.106;2022-07-15T17:11:52;19.50;90.50
4922;DHT22;16625;53.624;10.106;2022-07-15T17:14:19;19.20;74.20
4922;DHT22;16625;53.624;10.106;2022-07-15T17:16:48;19.20;69.10
4922;DHT22;16625;53.624;10.106;2022-07-15T17:19:16;20.10;77.10
4922;DHT22;16625;53.624;10.106;2022-07-15T17:21:43;19.00;78.90
4922;DHT22;16625;53.624;10.106;2022-07-15T17:24:10;19.00;80.30
4922;DHT22;16625;53.624;10.106;2022-07-15T17:26:37;18.90;80.90
4922;DHT22;16625;53.624;10.106;2022-07-15T17:29:05;18.80;71.60
4922;DHT22;16625;53.624;10.106;2022-07-15T17:31:33;18.70;80.50
4922;DHT22;16625;53.624;10.106;2022-07-15T17:34:03;18.60;92.10
4922;DHT22;16625;53.624;10.106;2022-07-15T17:36:30;19.00;95.50
4922;DHT22;16625;53.624;10.106;2022-07-15T17:38:58;18.40;95.00
4922;DHT22;16625;53.624;10.106;2022-07-15T17:41:25;18.50;99.90
4922;DHT22;16625;53.624;10.106;2022-07-15T17:43:53;18.50;99.90
4922;DHT22;16625;53.624;10.106;2022-07-15T17:46:20;18.30;99.90
4922;DHT22;16625;53.624;10.106;2022-07-15T17:48:46;18.50;98.30
4922;DHT22;16625;53.624;10.106;2022-07-15T17:51:15;18.20;99.90
4922;DHT22;16625;53.624;10.106;2022-07-15T17:53:42;18.10;99.90
4922;DHT22;16625;53.624;10.106;2022-07-15T17:56:11;18.10;99.90
4922;DHT22;16625;53.624;10.106;2022-07-15T17:58:38;18.00;99.90
4922;DHT22;16625;53.624;10.106;2022-07-15T18:01:05;18.40;99.90
4922;DHT22;16625;53.624;10.106;2022-07-15T18:03:32;18.00;98.30
4922;DHT22;16625;53.624;10.106;2022-07-15T18:05:59;18.00;85.80
4922;DHT22;16625;53.624;10.106;2022-07-15T18:08:47;18.00;76.30
4922;DHT22;16625;53.624;10.106;2022-07-15T18:11:16;17.90;31.40
4922;DHT22;16625;53.624;10.106;2022-07-15T18:13:44;17.90;46.60
4922;DHT22;16625;53.624;10.106;2022-07-15T18:16:12;18.40;58.70
4922;DHT22;16625;53.624;10.106;2022-07-15T18:18:42;17.80;40.30
4922;DHT22;16625;53.624;10.106;2022-07-15T18:21:09;17.70;23.70
4922;DHT22;16625;53.624;10.106;2022-07-15T18:23:36;17.60;4.10
4922;DHT22;16625;53.624;10.106;2022-07-15T18:26:06;17.50;1.00
4922;DHT22;16625;53.624;10.106;2022-07-15T18:28:33;17.40;6.00
4922;DHT22;16625;53.624;10.106;2022-07-15T18:31:02;17.40;1.70
4922;DHT22;16625;53.624;10.106;2022-07-15T18:33:29;17.40;1.00
4922;DHT22;16625;53.624;10.106;2022-07-15T18:35:56;17.50;1.00
4922;DHT22;16625;53.624;10.106;2022-07-15T18:38:23;17.20;24.10
4922;DHT22;16625;53.624;10.106;2022-07-15T18:40:58;17.20;19.40
4922;DHT22;16625;53.624;10.106;2022-07-15T18:43:27;17.10;76.30
4922;DHT22;16625;53.624;10.106;2022-07-15T18:45:54;17.10;86.10
4922;DHT22;16625;53.624;10.106;2022-07-15T18:48:41;17.40;92.50
4922;DHT22;16625;53.624;10.106;2022-07-15T18:51:08;17.00;92.30
4922;DHT22;16625;53.624;10.106;2022-07-15T18:53:36;17.10;99.90
4922;DHT22;16625;53.624;10.106;2022-07-15T18:56:04;16.90;99.90
4922;DHT22;16625;53.624;10.106;2022-07-15T18:58:34;16.80;99.90
4922;DHT22;16625;53.624;10.106;2022-07-15T19:01:12;16.80;99.90
4922;DHT22;16625;53.624;10.106;2022-07-15T19:03:39;16.80;99.90
4922;DHT22;16625;53.624;10.106;2022-07-15T19:06:06;16.70;99.90
4922;DHT22;16625;53.624;10.106;2022-07-15T19:08:33;16.70;99.90
4922;DHT22;16625;53.624;10.106;2022-07-15T19:11:00;16.50;99.90
4922;DHT22;16625;53.624;10.106;2022-07-15T19:13:28;16.50;99.90
4922;DHT22;16625;53.624;10.106;2022-07-15T19:15:58;16.50;99.90
4922;DHT22;16625;53.624;10.106;2022-07-15T19:18:25;16.60;99.90
4922;DHT22;16625;53.624;10.106;2022-07-15T19:20:53;16.50;99.90
4922;DHT22;16625;53.624;10.106;2022-07-15T19:23:20;16.40;99.90
4922;DHT22;16625;53.624;10.106;2022-07-15T19:25:48;16.30;99.90
4922;DHT22;16625;53.624;10.106;2022-07-15T19:28:15;16.30;99.90
4922;DHT22;16625;53.624;10.106;2022-07-15T19:30:42;16.20;99.90
4922;DHT22;16625;53.624;10.106;2022-07-15T19:33:12;16.50;99.90
4922;DHT22;16625;53.624;10.106;2022-07-15T19:35:39;16.20;99.90
4922;DHT22;16625;53.624;10.106;2022-07-15T19:38:06;16.10;99.90
4922;DHT22;16625;53.624;10.106;2022-07-15T19:40:34;16.10;99.90
4922;DHT22;16625;53.624;10.106;2022-07-15T19:43:01;16.10;99.90
4922;DHT22;16625;53.624;10.106;2022-07-15T19:45:28;16.00;99.90
4922;DHT22;16625;53.624;10.106;2022-07-15T19:47:55;16.00;99.90
4922;DHT22;16625;53.624;10.106;2022-07-15T19:50:33;15.90;1.00
4922;DHT22;16625;53.624;10.106;2022-07-15T19:53:00;16.40;1.00
4922;DHT22;16625;53.624;10.106;2022-07-15T19:55:27;15.90;1.00
4922;DHT22;16625;53.624;10.106;2022-07-15T19:57:55;15.90;1.00
4922;DHT22;16625;53.624;10.106;2022-07-15T20:00:54;15.90;1.00
4922;DHT22;16625;53.624;10.106;2022-07-15T20:03:22;15.90;1.00
4922;DHT22;16625;53.624;10.106;2022-07-15T20:05:50;15.80;1.00
4922;DHT22;16625;53.624;10.106;2022-07-15T20:08:18;15.80;1.00
4922;DHT22;16625;53.624;10.106;2022-07-15T20:10:46;15.80;1.00
4922;DHT22;16625;53.624;10.106;2022-07-15T20:13:13;16.00;1.00
4922;DHT22;16625;53.624;10.106;2022-07-15T20:15:46;15.80;36.30
4922;DHT22;16625;53.624;10.106;2022-07-15T20:18:13;15.80;99.90
4922;DHT22;16625;53.624;10.106;2022-07-15T20:20:43;15.80;99.90
4922;DHT22;16625;53.624;10.106;2022-07-15T20:23:12;15.80;99.90
4922;DHT22;16625;53.624;10.106;2022-07-15T20:25:39;15.80;99.90
4922;DHT22;16625;53.624;10.106;2022-07-15T20:28:07;15.80;99.90
4922;DHT22;16625;53.624;10.106;2022-07-15T20:30:34;15.80;99.90
4922;DHT22;16625;53.624;10.106;2022-07-15T20:33:02;15.80;99.90
4922;DHT22;16625;53.624;10.106;2022-07-15T20:42:18;15.80;1.00
4922;DHT22;16625;53.624;10.106;2022-07-15T20:44:46;15.80;1.00
4922;DHT22;16625;53.624;10.106;2022-07-15T20:47:16;15.80;2.80
4922;DHT22;16625;53.624;10.106;2022-07-15T20:49:52;15.80;9.20
4922;DHT22;16625;53.624;10.106;2022-07-15T20:52:23;15.80;29.50
4922;DHT22;16625;53.624;10.106;2022-07-15T20:54:51;15.70;99.90
4922;DHT22;16625;53.624;10.106;2022-07-15T20:57:23;15.70;99.90
4922;DHT22;16625;53.624;10.106;2022-07-15T20:59:51;15.70;1.00
4922;DHT22;16625;53.624;10.106;2022-07-15T21:02:18;15.60;1.00
4922;DHT22;16625;53.624;10.106;2022-07-15T21:04:45;15.70;50.50
4922;DHT22;16625;53.624;10.106;2022-07-15T21:07:13;15.70;99.90
4922;DHT22;16625;53.624;10.106;2022-07-15T21:09:40;15.70;99.90
4922;DHT22;16625;53.624;10.106;2022-07-15T21:12:07;16.30;1.00
4922;DHT22;16625;53.624;10.106;2022-07-15T21:14:36;15.80;1.00
4922;DHT22;16625;53.624;10.106;2022-07-15T21:17:03;15.80;1.00
4922;DHT22;16625;53.624;10.106;2022-07-15T21:19:30;15.70;1.00
4922;DHT22;16625;53.624;10.106;2022-07-15T21:21:58;15.80;1.00
4922;DHT22;16625;53.624;10.106;2022-07-15T21:27:48;15.70;58.10
4922;DHT22;16625;53.624;10.106;2022-07-15T21:30:18;15.80;90.30
4922;DHT22;16625;53.624;10.106;2022-07-15T21:32:45;15.70;99.90
4922;DHT22;16625;53.624;10.106;2022-07-15T21:35:13;15.80;99.90
4922;DHT22;16625;53.624;10.106;2022-07-15T21:37:41;15.70;99.90
4922;DHT22;16625;53.624;10.106;2022-07-15T21:40:08;15.70;99.90
4922;DHT22;16625;53.624;10.106;2022-07-15T21:42:36;15.70;99.90
4922;DHT22;16625;53.624;10.106;2022-07-15T21:45:04;16.70;99.90
4922;DHT22;16625;53.624;10.106;2022-07-15T21:47:33;15.80;99.90
4922;DHT22;16625;53.624;10.106;2022-07-15T21:50:00;15.70;99.90